Time;durP1;ratioP1;P1;durP2;ratioP2;P2;SDS_P1;SDS_P2;PMS_P1;PMS_P2;Temp;Humidity;BMP_temperature;BMP_pressure;BME280_temperature;BME280_humidity;BME280_pressure;Samples;Min_cycle;Max_cycle;Signal;HPM_P1;HPM_P2
2022/06/07 00:01:22;;;;;;;1.00;0.88;;;15.30;99.90;;;;;;5027090;28;20025;-75
2022/06/07 00:03:48;;;;;;;2.45;1.10;;;15.30;99.90;;;;;;5026471;28;20481;-74
2022/06/07 00:06:14;;;;;;;0.70;0.70;;;15.30;99.90;;;;;;5026743;28;20773;-75
2022/06/07 00:08:40;;;;;;;1.90;0.63;;;15.40;99.90;;;;;;5025860;28;20026;-76
2022/06/07 00:11:05;;;;;;;0.70;0.70;;;15.20;99.90;;;;;;5021269;28;20364;-75
2022/06/07 00:13:32;;;;;;;3.38;1.25;;;15.40;99.90;;;;;;5021943;28;20483;-75
2022/06/07 00:15:58;;;;;;;0.95;0.90;;;15.40;99.90;;;;;;5006875;28;20323;-76
2022/06/07 00:18:23;;;;;;;1.77;0.60;;;15.40;99.90;;;;;;5008830;28;20029;-76
2022/06/07 00:20:49;;;;;;;0.60;0.60;;;15.40;99.90;;;;;;5006832;28;20086;-75
2022/06/07 00:23:17;;;;;;;1.00;0.90;;;15.40;99.90;;;;;;5008657;28;20026;-75
2022/06/07 00:25:45;;;;;;;2.72;1.02;;;15.30;99.90;;;;;;5007348;28;20033;-76
2022/06/07 00:28:11;;;;;;;1.90;0.97;;;15.20;99.90;;;;;;5008491;28;20030;-79
2022/06/07 00:30:37;;;;;;;0.90;0.90;;;15.10;99.90;;;;;;5011208;28;20439;-76
2022/06/07 00:33:04;;;;;;;2.60;0.88;;;14.90;99.90;;;;;;5013338;28;20053;-76
2022/06/07 00:35:30;;;;;;;0.93;0.93;;;14.80;99.90;;;;;;5015781;28;20030;-76
2022/06/07 00:37:55;;;;;;;1.67;1.58;;;14.80;99.90;;;;;;5009834;28;20132;-77
2022/06/07 00:40:21;;;;;;;1.77;0.82;;;14.80;99.90;;;;;;5012279;28;20682;-76
2022/06/07 00:42:47;;;;;;;1.20;1.10;;;14.70;99.90;;;;;;5018337;28;20104;-76
2022/06/07 00:45:15;;;;;;;1.92;1.30;;;14.60;99.90;;;;;;5013484;28;20489;-78
2022/06/07 00:47:41;;;;;;;1.95;0.95;;;14.40;99.90;;;;;;5011699;28;20033;-77
2022/06/07 00:50:29;;;;;;;1.90;1.10;;;14.40;99.90;;;;;;5027444;28;20029;-76
2022/06/07 00:52:55;;;;;;;1.60;1.50;;;14.30;99.90;;;;;;5012666;28;20033;-77
2022/06/07 00:55:21;;;;;;;2.55;1.50;;;14.10;99.90;;;;;;5014490;28;20483;-77
2022/06/07 00:57:47;;;;;;;2.60;1.25;;;14.10;99.90;;;;;;5014401;28;20598;-77
2022/06/07 01:00:15;;;;;;;2.00;1.70;;;14.20;99.90;;;;;;5015385;28;20033;-78
2022/06/07 01:02:41;;;;;;;1.65;1.55;;;14.30;99.90;;;;;;5014158;28;20532;-77
2022/06/07 01:05:07;;;;;;;1.30;1.20;;;14.30;99.90;;;;;;5011504;28;20029;-77
2022/06/07 01:13:01;;;;;;;1.02;1.02;;;14.30;99.90;;;;;;5016397;28;20045;-78
2022/06/07 01:15:27;;;;;;;2.58;1.00;;;14.30;99.90;;;;;;5012877;28;20057;-77
2022/06/07 01:17:53;;;;;;;2.72;1.50;;;14.30;99.90;;;;;;5012977;28;20018;-77
2022/06/07 01:20:18;;;;;;;2.78;1.02;;;14.20;99.90;;;;;;5013697;28;20034;-77
2022/06/07 01:22:44;;;;;;;2.08;1.33;;;14.20;99.90;;;;;;5014859;28;20029;-77
2022/06/07 01:25:10;;;;;;;1.50;1.40;;;14.20;99.90;;;;;;5015830;28;20029;-77
2022/06/07 01:27:36;;;;;;;2.17;1.10;;;14.10;99.90;;;;;;5016336;28;20030;-77
2022/06/07 01:30:02;;;;;;;1.15;1.10;;;14.20;99.90;;;;;;5030007;28;20065;-77
2022/06/07 01:32:29;;;;;;;1.20;1.10;;;14.10;99.90;;;;;;5017748;28;20081;-78
2022/06/07 01:34:55;;;;;;;2.05;1.85;;;14.10;99.90;;;;;;5018777;28;20025;-76
2022/06/07 01:37:21;;;;;;;1.45;1.35;;;14.20;99.90;;;;;;5014642;28;20037;-77
2022/06/07 01:42:31;;;;;;;3.65;1.67;;;14.20;99.90;;;;;;5017016;28;20029;-76
2022/06/07 01:44:57;;;;;;;1.38;1.20;;;14.20;99.90;;;;;;5014181;28;20034;-76
2022/06/07 01:47:28;;;;;;;4.70;1.15;;;14.20;99.90;;;;;;5012817;28;20022;-77
2022/06/07 01:49:55;;;;;;;0.82;0.82;;;14.10;99.90;;;;;;5013148;28;20049;-76
2022/06/07 01:52:24;;;;;;;1.00;0.90;;;14.10;99.90;;;;;;5014297;28;20485;-76
2022/06/07 01:54:51;;;;;;;1.58;1.48;;;14.10;99.90;;;;;;5013529;28;20041;-77
2022/06/07 01:57:18;;;;;;;1.35;1.25;;;14.00;99.90;;;;;;5013878;28;20052;-77
2022/06/07 01:59:44;;;;;;;1.38;1.20;;;14.00;99.90;;;;;;5013088;28;20505;-77
2022/06/07 02:02:10;;;;;;;2.75;1.38;;;14.00;99.90;;;;;;5013447;28;20117;-77
2022/06/07 02:04:41;;;;;;;4.03;1.40;;;14.00;99.90;;;;;;5014570;28;20045;-77
2022/06/07 02:07:07;;;;;;;5.15;2.13;;;14.00;99.90;;;;;;5014428;28;20080;-77
2022/06/07 02:09:33;;;;;;;1.67;1.10;;;14.00;99.90;;;;;;5028791;28;20056;-77
2022/06/07 02:11:59;;;;;;;1.85;1.27;;;14.00;99.90;;;;;;5015496;28;20513;-77
2022/06/07 02:14:25;;;;;;;1.50;1.40;;;14.00;99.90;;;;;;5014110;28;20035;-78
2022/06/07 02:16:51;;;;;;;1.05;1.05;;;14.00;99.90;;;;;;5015129;28;20036;-76
2022/06/07 02:19:17;;;;;;;1.33;1.23;;;13.90;99.90;;;;;;5013399;28;20030;-76
2022/06/07 02:21:42;;;;;;;1.98;1.85;;;13.90;99.90;;;;;;5012258;28;20021;-77
2022/06/07 02:24:09;;;;;;;1.00;0.95;;;14.00;99.90;;;;;;5013577;28;20100;-76
2022/06/07 02:26:51;;;;;;;1.58;1.27;;;14.00;99.90;;;;;;5011527;28;20030;-76
2022/06/07 02:29:21;;;;;;;3.22;1.40;;;14.00;99.90;;;;;;5013929;28;20133;-76
2022/06/07 02:31:51;;;;;;;1.20;1.10;;;14.00;99.90;;;;;;5015254;28;20029;-77
2022/06/07 02:34:19;;;;;;;0.90;0.90;;;14.50;99.90;;;;;;5014100;28;20478;-77
2022/06/07 02:36:48;;;;;;;1.65;1.25;;;14.00;99.90;;;;;;5014517;28;20092;-77
2022/06/07 02:39:15;;;;;;;0.95;0.95;;;14.00;99.90;;;;;;5014243;28;20041;-77
2022/06/07 02:41:42;;;;;;;1.27;1.23;;;13.90;99.90;;;;;;5013019;28;20045;-77
2022/06/07 02:44:08;;;;;;;1.05;0.90;;;13.90;99.90;;;;;;5012519;28;20101;-77
2022/06/07 02:46:34;;;;;;;1.60;1.25;;;13.90;99.90;;;;;;5014750;28;20096;-77
2022/06/07 02:48:59;;;;;;;2.47;1.58;;;13.80;99.90;;;;;;5014253;28;20022;-77
2022/06/07 02:51:26;;;;;;;2.65;1.77;;;13.70;99.90;;;;;;5017185;28;20061;-77
2022/06/07 02:53:52;;;;;;;1.50;1.40;;;13.70;99.90;;;;;;5016969;28;20044;-77
2022/06/07 02:56:18;;;;;;;1.48;1.38;;;13.70;99.90;;;;;;5013464;28;20474;-77
2022/06/07 02:58:44;;;;;;;5.10;1.70;;;13.70;99.90;;;;;;5013385;28;20030;-77
2022/06/07 03:01:10;;;;;;;2.30;2.10;;;13.70;99.90;;;;;;5013260;28;20092;-77
2022/06/07 03:03:36;;;;;;;1.30;1.20;;;13.70;99.90;;;;;;5013375;28;20018;-77
2022/06/07 03:06:01;;;;;;;2.10;1.30;;;13.70;99.90;;;;;;5012738;28;20087;-77
2022/06/07 03:08:30;;;;;;;1.40;1.30;;;13.60;99.90;;;;;;5013799;28;20402;-78
2022/06/07 03:10:57;;;;;;;1.98;1.13;;;13.70;99.90;;;;;;5015234;28;20025;-78
2022/06/07 03:13:23;;;;;;;2.22;1.27;;;13.90;99.90;;;;;;5015226;28;20018;-77
2022/06/07 03:15:49;;;;;;;1.50;1.40;;;13.90;99.90;;;;;;5015210;28;20050;-77
2022/06/07 03:18:15;;;;;;;1.40;1.30;;;13.90;99.90;;;;;;5014438;28;20044;-77
2022/06/07 03:20:43;;;;;;;1.23;1.13;;;13.90;99.90;;;;;;5012195;28;20037;-77
2022/06/07 03:23:09;;;;;;;1.13;1.13;;;13.90;99.90;;;;;;5011404;28;20018;-77
2022/06/07 03:25:34;;;;;;;1.48;1.38;;;13.90;99.90;;;;;;5010295;28;20080;-76
2022/06/07 03:28:00;;;;;;;1.50;1.40;;;14.00;99.90;;;;;;5010380;28;20029;-77
2022/06/07 03:30:26;;;;;;;1.60;1.50;;;14.00;99.90;;;;;;5010264;28;20033;-77
2022/06/07 03:32:51;;;;;;;3.35;1.30;;;14.00;99.90;;;;;;5010460;28;20497;-76
2022/06/07 03:35:17;;;;;;;2.63;1.60;;;13.90;99.90;;;;;;5013085;28;20434;-76
2022/06/07 03:37:43;;;;;;;2.80;1.30;;;13.90;99.90;;;;;;5029286;28;20030;-77
2022/06/07 03:40:12;;;;;;;1.55;1.40;;;13.90;99.90;;;;;;5010717;28;20033;-76
2022/06/07 03:42:38;;;;;;;1.50;1.40;;;14.00;99.90;;;;;;5013396;28;20246;-77
2022/06/07 03:45:05;;;;;;;2.40;2.20;;;13.90;99.90;;;;;;5015190;28;20307;-76
2022/06/07 03:47:31;;;;;;;2.80;1.48;;;13.90;99.90;;;;;;5016579;28;20057;-77
2022/06/07 03:49:57;;;;;;;2.40;1.60;;;14.00;99.90;;;;;;5014209;28;20026;-77
2022/06/07 03:52:23;;;;;;;1.80;1.67;;;14.00;99.90;;;;;;5015530;28;20022;-77
2022/06/07 03:54:49;;;;;;;2.97;1.60;;;14.00;99.90;;;;;;5016256;28;20029;-77
2022/06/07 03:57:16;;;;;;;3.38;1.40;;;14.10;99.90;;;;;;5016931;28;20082;-77
2022/06/07 03:59:43;;;;;;;1.20;1.10;;;14.00;99.90;;;;;;5015404;28;20038;-77
2022/06/07 04:02:09;;;;;;;1.20;1.10;;;14.00;99.90;;;;;;5016990;28;20022;-77
2022/06/07 04:04:36;;;;;;;1.30;1.20;;;14.10;99.90;;;;;;5018654;28;20033;-78
2022/06/07 04:09:46;;;;;;;3.67;1.90;;;14.20;99.90;;;;;;5015068;28;20398;-77
2022/06/07 04:12:14;;;;;;;1.23;1.13;;;14.30;99.90;;;;;;5011276;28;20030;-76
2022/06/07 04:14:42;;;;;;;10.23;2.08;;;14.30;99.90;;;;;;5013392;28;20022;-76
2022/06/07 04:17:09;;;;;;;1.55;1.45;;;14.30;99.90;;;;;;5015709;28;20082;-76
2022/06/07 04:19:36;;;;;;;1.38;1.27;;;14.40;99.90;;;;;;5017678;28;20034;-76
2022/06/07 04:22:04;;;;;;;2.90;1.70;;;14.40;99.90;;;;;;5016940;28;20478;-76
2022/06/07 04:24:30;;;;;;;3.38;1.27;;;14.30;99.90;;;;;;5015097;28;20025;-76
2022/06/07 04:26:56;;;;;;;2.00;1.30;;;14.30;99.90;;;;;;5016169;28;20506;-76
2022/06/07 04:29:23;;;;;;;1.88;1.77;;;14.40;99.90;;;;;;5016922;28;20030;-76
2022/06/07 04:31:49;;;;;;;1.10;1.10;;;14.40;99.90;;;;;;5016737;28;20114;-76
2022/06/07 04:34:16;;;;;;;1.88;1.65;;;14.40;99.90;;;;;;5017714;28;20486;-76
2022/06/07 04:36:42;;;;;;;1.55;1.42;;;14.50;99.90;;;;;;5018345;28;20026;-75
2022/06/07 04:39:08;;;;;;;2.50;1.40;;;14.50;99.90;;;;;;5016517;28;20097;-76
2022/06/07 04:41:34;;;;;;;1.20;1.10;;;14.50;99.90;;;;;;5017106;28;20562;-76
2022/06/07 04:43:59;;;;;;;1.30;0.93;;;14.50;99.90;;;;;;5016630;28;20363;-76
2022/06/07 04:46:27;;;;;;;1.55;1.10;;;14.60;99.90;;;;;;5016374;28;20040;-76
2022/06/07 04:48:54;;;;;;;1.80;1.23;;;14.60;99.90;;;;;;5015500;28;20542;-75
2022/06/07 04:51:27;;;;;;;4.22;1.20;;;14.60;99.90;;;;;;5013305;28;20414;-76
2022/06/07 04:53:53;;;;;;;1.45;1.08;;;14.60;99.90;;;;;;5014982;28;20080;-76
2022/06/07 04:56:24;;;;;;;1.30;1.15;;;14.70;99.90;;;;;;5015191;28;20022;-76
2022/06/07 04:58:50;;;;;;;1.23;1.05;;;14.70;99.90;;;;;;5016542;28;20041;-76
2022/06/07 05:01:19;;;;;;;2.25;1.35;;;14.80;99.90;;;;;;5040210;28;20097;-75
2022/06/07 05:03:45;;;;;;;;;;;14.80;99.90;;;;;;5016492;28;20033;-76
2022/06/07 05:06:21;;;;;;;2.30;0.98;;;14.60;99.90;;;;;;5036797;28;19905;-75
2022/06/07 05:08:46;;;;;;;2.58;1.30;;;14.70;99.90;;;;;;5013934;28;20104;-75
2022/06/07 05:11:12;;;;;;;1.63;1.20;;;14.70;99.90;;;;;;5013828;28;20483;-75
2022/06/07 05:13:38;;;;;;;1.17;1.08;;;14.70;99.90;;;;;;5018198;28;20032;-75
2022/06/07 05:16:05;;;;;;;1.33;1.20;;;14.80;99.90;;;;;;5013047;28;20136;-76
2022/06/07 05:18:30;;;;;;;2.60;1.02;;;14.80;99.90;;;;;;5013570;28;20037;-77
2022/06/07 05:20:56;;;;;;;1.38;1.27;;;14.90;99.90;;;;;;5032012;28;20124;-79
2022/06/07 05:23:22;;;;;;;1.30;1.23;;;14.90;99.90;;;;;;5030232;28;20032;-76
2022/06/07 05:26:18;;;;;;;2.78;1.33;;;15.10;99.90;;;;;;5026918;28;20029;-76
2022/06/07 05:28:44;;;;;;;1.52;1.30;;;15.20;99.90;;;;;;5028441;28;20545;-75
2022/06/07 05:31:10;;;;;;;3.25;1.13;;;15.20;99.90;;;;;;5030917;28;20113;-76
2022/06/07 05:33:36;;;;;;;5.22;1.60;;;15.20;99.90;;;;;;5032637;28;20329;-76
2022/06/07 05:36:03;;;;;;;1.83;1.73;;;15.00;99.90;;;;;;5029460;28;20053;-77
2022/06/07 05:38:29;;;;;;;0.90;0.90;;;15.40;99.90;;;;;;5028804;28;20466;-75
2022/06/07 05:40:55;;;;;;;1.65;1.55;;;15.40;99.90;;;;;;5031151;28;20040;-77
2022/06/07 05:43:21;;;;;;;1.73;1.23;;;15.60;99.90;;;;;;5042243;28;20029;-75
2022/06/07 05:45:53;;;;;;;2.40;1.10;;;15.60;99.90;;;;;;5028462;28;20026;-75
2022/06/07 05:48:19;;;;;;;1.15;1.10;;;15.60;99.90;;;;;;5030501;28;20037;-75
2022/06/07 05:50:48;;;;;;;1.67;1.38;;;15.60;99.90;;;;;;5028435;28;20257;-75
2022/06/07 05:53:14;;;;;;;4.60;2.35;;;15.50;99.90;;;;;;5026673;28;20272;-74
2022/06/07 05:55:40;;;;;;;1.75;1.65;;;15.50;99.90;;;;;;5031002;28;20081;-74
2022/06/07 05:58:06;;;;;;;1.42;1.30;;;15.70;99.90;;;;;;5031274;28;20017;-74
2022/06/07 06:00:31;;;;;;;2.53;1.40;;;15.50;99.90;;;;;;5030424;28;20252;-75
2022/06/07 06:02:57;;;;;;;1.40;1.30;;;15.60;99.90;;;;;;5038343;28;20096;-76
2022/06/07 06:05:23;;;;;;;2.22;1.10;;;15.80;99.90;;;;;;5041274;28;20309;-76
2022/06/07 06:10:32;;;;;;;2.65;1.35;;;15.90;99.90;;;;;;5044215;28;20128;-75
2022/06/07 06:12:58;;;;;;;1.25;1.00;;;15.90;99.90;;;;;;5035667;28;20353;-75
2022/06/07 06:15:24;;;;;;;2.75;1.10;;;16.10;99.90;;;;;;5026933;28;20049;-75
2022/06/07 06:17:49;;;;;;;0.93;0.90;;;16.40;99.90;;;;;;5020339;28;20040;-75
2022/06/07 06:20:15;;;;;;;1.02;1.02;;;16.30;99.90;;;;;;5018599;28;20060;-75
2022/06/07 06:22:41;;;;;;;2.38;1.90;;;16.40;99.90;;;;;;5009567;28;20060;-76
2022/06/07 06:25:10;;;;;;;2.55;0.90;;;16.50;99.90;;;;;;5011844;28;20053;-75
2022/06/07 06:27:37;;;;;;;0.80;0.80;;;16.60;99.90;;;;;;5015235;28;20430;-74
2022/06/07 06:30:04;;;;;;;0.90;0.90;;;16.70;99.90;;;;;;5015758;28;20046;-75
2022/06/07 06:32:29;;;;;;;1.15;0.80;;;17.00;99.90;;;;;;5017498;28;20177;-75
2022/06/07 06:34:55;;;;;;;2.13;0.80;;;17.00;99.90;;;;;;5030221;28;20559;-75
2022/06/07 06:37:21;;;;;;;0.75;0.75;;;17.10;99.90;;;;;;5053842;28;20029;-74
2022/06/07 06:39:46;;;;;;;0.90;0.90;;;17.10;99.90;;;;;;5033007;28;20033;-74
2022/06/07 06:42:12;;;;;;;0.73;0.73;;;17.00;99.90;;;;;;5035603;28;20091;-74
2022/06/07 06:44:38;;;;;;;1.48;1.38;;;16.80;99.90;;;;;;5031712;28;20253;-75
2022/06/07 06:47:04;;;;;;;3.33;1.27;;;16.80;99.90;;;;;;5028681;28;20041;-74
2022/06/07 06:49:32;;;;;;;0.98;0.98;;;16.90;99.90;;;;;;5031100;28;20030;-74
2022/06/07 06:51:59;;;;;;;1.50;0.60;;;17.00;99.90;;;;;;5029994;28;20036;-74
2022/06/07 06:54:25;;;;;;;0.93;0.93;;;17.00;99.90;;;;;;5034310;28;20037;-74
2022/06/07 06:56:50;;;;;;;0.70;0.70;;;16.80;99.90;;;;;;5031181;28;20052;-74
2022/06/07 06:59:17;;;;;;;1.15;0.95;;;16.90;99.90;;;;;;5027633;28;20033;-74
2022/06/07 07:01:43;;;;;;;0.68;0.68;;;16.90;99.90;;;;;;5027734;28;20025;-74
2022/06/07 07:04:12;;;;;;;0.75;0.75;;;16.90;99.90;;;;;;5027177;28;20032;-78
2022/06/07 07:06:38;;;;;;;1.70;0.60;;;17.10;99.90;;;;;;5028325;28;20065;-76
2022/06/07 07:09:06;;;;;;;1.05;0.82;;;17.20;99.90;;;;;;5042689;28;20031;-75
2022/06/07 07:11:35;;;;;;;0.68;0.68;;;17.50;99.90;;;;;;5038759;28;20080;-74
2022/06/07 07:14:02;;;;;;;1.38;0.80;;;17.60;99.90;;;;;;5018469;28;20014;-74
2022/06/07 07:16:33;;;;;;;1.30;0.60;;;17.90;99.90;;;;;;5023405;28;20064;-75
2022/06/07 07:19:00;;;;;;;0.88;0.70;;;18.00;99.90;;;;;;5018122;28;20116;-76
2022/06/07 07:21:33;;;;;;;1.48;0.85;;;17.90;99.90;;;;;;5012323;28;20024;-75
2022/06/07 07:24:00;;;;;;;2.28;0.60;;;17.90;99.90;;;;;;5005533;28;20566;-75
2022/06/07 07:26:28;;;;;;;0.75;0.70;;;18.10;99.90;;;;;;5005070;28;20044;-75
2022/06/07 07:28:54;;;;;;;0.60;0.60;;;18.20;99.90;;;;;;5010225;28;20456;-75
2022/06/07 07:31:22;;;;;;;0.65;0.65;;;18.30;99.90;;;;;;5017563;28;20364;-75
2022/06/07 07:33:48;;;;;;;0.60;0.60;;;18.10;99.90;;;;;;5010112;28;20467;-75
2022/06/07 07:36:14;;;;;;;1.60;0.80;;;17.90;99.90;;;;;;5009654;28;20030;-75
2022/06/07 07:38:41;;;;;;;3.85;1.60;;;17.80;99.90;;;;;;5012691;28;20430;-75
2022/06/07 07:41:20;;;;;;;1.30;0.70;;;17.80;99.90;;;;;;5012911;28;20034;-75
2022/06/07 07:43:47;;;;;;;2.00;0.80;;;17.70;99.90;;;;;;5012605;28;20052;-75
2022/06/07 07:46:13;;;;;;;0.82;0.82;;;17.50;99.90;;;;;;5012986;28;20445;-75
2022/06/07 07:48:40;;;;;;;0.80;0.80;;;17.60;99.90;;;;;;5010486;28;20025;-75
2022/06/07 07:51:08;;;;;;;0.77;0.77;;;17.50;99.90;;;;;;5011333;28;20156;-75
2022/06/07 07:53:34;;;;;;;1.00;0.80;;;17.50;99.90;;;;;;5011282;28;20059;-75
2022/06/07 07:56:00;;;;;;;1.65;0.70;;;17.40;99.90;;;;;;5009709;28;20053;-74
2022/06/07 07:58:26;;;;;;;2.63;1.00;;;16.70;99.90;;;;;;5012868;28;20071;-75
2022/06/07 08:00:51;;;;;;;1.25;0.90;;;16.60;99.90;;;;;;5013091;28;20038;-76
2022/06/07 08:03:19;;;;;;;3.13;1.00;;;16.60;99.90;;;;;;5013755;28;20399;-74
2022/06/07 08:05:46;;;;;;;0.90;0.90;;;16.50;99.90;;;;;;5010818;28;20026;-75
2022/06/07 08:08:12;;;;;;;0.80;0.80;;;16.50;99.90;;;;;;5012404;28;20033;-75
2022/06/07 08:10:39;;;;;;;2.15;1.08;;;16.60;99.90;;;;;;5011456;28;20026;-75
2022/06/07 08:13:05;;;;;;;0.80;0.80;;;17.30;99.90;;;;;;5011689;28;20029;-75
2022/06/07 08:15:33;;;;;;;1.10;1.10;;;17.10;99.90;;;;;;5010427;28;20053;-75
2022/06/07 08:18:02;;;;;;;1.33;1.23;;;17.10;99.90;;;;;;5008716;28;20470;-75
2022/06/07 08:20:29;;;;;;;0.90;0.90;;;17.10;99.90;;;;;;5009232;28;20034;-75
2022/06/07 08:22:55;;;;;;;1.30;1.15;;;17.60;99.90;;;;;;5010555;28;20053;-76
2022/06/07 08:25:21;;;;;;;1.30;1.20;;;17.50;99.90;;;;;;5006553;28;20115;-75
2022/06/07 08:27:47;;;;;;;0.93;0.93;;;17.60;99.90;;;;;;5006381;28;20098;-75
2022/06/07 08:30:13;;;;;;;3.45;0.90;;;17.40;99.90;;;;;;5008143;28;20538;-74
2022/06/07 08:32:39;;;;;;;1.85;1.10;;;17.10;99.90;;;;;;5011156;28;20487;-74
2022/06/07 08:37:50;;;;;;;1.35;0.88;;;17.00;99.90;;;;;;5008094;28;20041;-74
2022/06/07 08:40:26;;;;;;;1.85;1.17;;;16.80;99.90;;;;;;5007287;28;20034;-74
2022/06/07 08:42:56;;;;;;;1.67;1.30;;;15.80;99.90;;;;;;5008349;28;20022;-75
2022/06/07 08:45:29;;;;;;;;;;;16.50;99.90;;;;;;5009404;28;20406;-75
2022/06/07 08:48:11;;;;;;;1.38;1.27;;;16.70;99.90;;;;;;5005001;28;19913;-74
2022/06/07 08:50:45;;;;;;;1.42;1.17;;;17.00;99.90;;;;;;5004622;28;20030;-75
2022/06/07 08:53:11;;;;;;;0.88;0.88;;;17.60;99.90;;;;;;5005849;28;20041;-75
2022/06/07 08:55:48;;;;;;;1.65;0.98;;;17.90;99.90;;;;;;5006120;28;20029;-75
2022/06/07 08:58:22;;;;;;;0.75;0.75;;;18.20;99.90;;;;;;5006062;28;20332;-76
2022/06/07 09:00:57;;;;;;;0.93;0.88;;;18.60;99.90;;;;;;5008992;28;20042;-75
2022/06/07 09:03:59;;;;;;;3.03;1.10;;;17.90;99.90;;;;;;5017212;28;20017;-75
2022/06/07 09:06:30;;;;;;;1.90;0.93;;;16.90;99.90;;;;;;5006286;28;20179;-75
2022/06/07 09:09:00;;;;;;;1.55;1.38;;;16.90;99.90;;;;;;5015339;28;20061;-75
2022/06/07 09:14:26;;;;;;;4.30;1.20;;;16.30;99.90;;;;;;5013734;28;20125;-75
2022/06/07 09:16:55;;;;;;;1.10;1.00;;;16.10;99.90;;;;;;5013748;28;20050;-76
2022/06/07 09:19:25;;;;;;;1.60;1.10;;;15.70;99.90;;;;;;5013601;28;20030;-75
2022/06/07 09:21:53;;;;;;;0.90;0.90;;;15.70;99.90;;;;;;5010283;28;20336;-75
2022/06/07 09:24:32;;;;;;;1.95;1.10;;;15.90;99.90;;;;;;5006547;28;20109;-75
2022/06/07 09:27:12;;;;;;;0.95;0.95;;;16.30;99.90;;;;;;5007240;28;20041;-75
2022/06/07 09:29:39;;;;;;;0.80;0.80;;;16.50;99.90;;;;;;5007633;28;20052;-75
2022/06/07 09:32:15;;;;;;;1.63;1.52;;;17.00;99.90;;;;;;5007548;28;20034;-75
2022/06/07 09:34:59;;;;;;;0.85;0.85;;;17.60;99.90;;;;;;5007729;28;20136;-75
2022/06/07 09:37:41;;;;;;;1.48;1.10;;;17.50;99.90;;;;;;5007512;28;20052;-75
2022/06/07 09:40:26;;;;;;;1.10;1.08;;;18.40;99.90;;;;;;5005567;28;20064;-75
2022/06/07 09:43:12;;;;;;;1.23;1.13;;;18.40;99.90;;;;;;5007326;28;20110;-75
2022/06/07 09:45:44;;;;;;;0.95;0.95;;;18.90;99.90;;;;;;4975318;28;20033;-75
2022/06/07 09:48:19;;;;;;;1.65;1.23;;;19.30;99.90;;;;;;5007704;28;20075;-75
2022/06/07 09:50:58;;;;;;;1.00;1.00;;;19.50;99.90;;;;;;5007058;28;20757;-76
2022/06/07 09:53:24;;;;;;;1.05;0.85;;;19.30;99.90;;;;;;5008261;28;20033;-76
2022/06/07 09:56:09;;;;;;;0.80;0.80;;;19.40;99.90;;;;;;5045850;28;20029;-75
2022/06/07 09:59:03;;;;;;;2.00;0.82;;;19.00;99.90;;;;;;5046120;28;20021;-75
2022/06/07 10:01:56;;;;;;;1.00;0.70;;;19.00;99.90;;;;;;5018708;28;20041;-76
2022/06/07 10:04:43;;;;;;;0.60;0.60;;;19.10;99.90;;;;;;5044216;28;20482;-75
2022/06/07 10:07:31;;;;;;;0.80;0.80;;;19.30;99.90;;;;;;5043228;28;20033;-75
2022/06/07 10:10:03;;;;;;;1.27;1.00;;;19.00;99.90;;;;;;5033174;28;20250;-75
2022/06/07 10:12:39;;;;;;;0.95;0.88;;;19.00;99.90;;;;;;5053954;28;20242;-76
2022/06/07 10:15:42;;;;;;;1.30;1.20;;;18.70;99.90;;;;;;5028067;28;20069;-75
2022/06/07 10:18:23;;;;;;;1.52;0.93;;;18.70;99.90;;;;;;5026563;28;20067;-75
2022/06/07 10:20:59;;;;;;;2.08;0.90;;;18.90;99.90;;;;;;5025982;28;20038;-75
2022/06/07 10:23:32;;;;;;;2.08;1.13;;;19.10;99.90;;;;;;5026543;28;20049;-75
2022/06/07 10:26:20;;;;;;;1.48;0.85;;;19.10;99.90;;;;;;5025688;28;20036;-76
2022/06/07 10:29:20;;;;;;;1.10;1.00;;;20.60;99.90;;;;;;5027655;28;20176;-76
2022/06/07 10:31:56;;;;;;;0.50;0.50;;;21.00;99.90;;;;;;5007927;28;20073;-76
2022/06/07 10:34:40;;;;;;;0.73;0.73;;;22.20;99.90;;;;;;5006573;28;20022;-75
2022/06/07 10:37:17;;;;;;;0.98;0.88;;;22.60;99.90;;;;;;5007501;28;20117;-76
2022/06/07 10:40:18;;;;;;;0.85;0.63;;;21.00;99.90;;;;;;5006209;28;20034;-76
2022/06/07 10:43:02;;;;;;;2.00;0.70;;;22.60;99.90;;;;;;5022983;28;20264;-76
2022/06/07 10:45:31;;;;;;;0.60;0.60;;;23.30;99.90;;;;;;5007251;28;20033;-76
2022/06/07 10:48:03;;;;;;;1.03;0.40;;;22.90;99.90;;;;;;5006922;28;20052;-76
2022/06/07 10:50:28;;;;;;;0.43;0.40;;;22.50;99.90;;;;;;5007491;28;20030;-76
2022/06/07 10:53:26;;;;;;;0.50;0.50;;;21.20;99.90;;;;;;5007525;28;20014;-75
2022/06/07 10:56:23;;;;;;;0.70;0.40;;;21.00;99.90;;;;;;5023386;28;20021;-76
2022/06/07 10:58:53;;;;;;;0.82;0.45;;;20.80;99.90;;;;;;5007050;28;20152;-76
2022/06/07 11:01:47;;;;;;;0.57;0.57;;;20.60;99.90;;;;;;5010077;28;20109;-76
2022/06/07 11:10:14;;;;;;;1.05;0.95;;;18.90;99.90;;;;;;5010956;28;20033;-76
2022/06/07 11:12:55;;;;;;;1.30;1.13;;;18.40;99.90;;;;;;5019327;28;20021;-75
2022/06/07 11:15:34;;;;;;;0.95;0.95;;;18.30;99.90;;;;;;5025635;28;20063;-76
2022/06/07 11:18:06;;;;;;;;;;;18.50;99.90;;;;;;5026651;28;20551;-75
2022/06/07 11:20:34;;;;;;;1.15;1.05;;;19.20;99.90;;;;;;5023398;28;19917;-75
2022/06/07 11:23:13;;;;;;;7.27;2.50;;;20.20;99.90;;;;;;5024589;28;20489;-75
2022/06/07 11:25:54;;;;;;;;;;;21.50;99.90;;;;;;5024194;28;20029;-75
2022/06/07 11:28:24;;;;;;;;;;;22.80;99.90;;;;;;5025505;28;20373;-75
2022/06/07 11:30:53;;;;;;;;;;;23.30;99.90;;;;;;5024419;28;19913;-75
2022/06/07 11:33:31;;;;;;;;;;;22.40;99.90;;;;;;5025552;28;20373;-75
2022/06/07 11:36:11;;;;;;;;;;;22.40;99.90;;;;;;5026726;28;19905;-76
2022/06/07 11:38:57;;;;;;;;;;;22.00;99.90;;;;;;5025420;28;20034;-75
2022/06/07 11:41:37;;;;;;;;;;;21.20;99.90;;;;;;5027448;28;19962;-74
2022/06/07 11:44:12;;;;;;;;;;;19.90;99.90;;;;;;5033609;28;19995;-74
2022/06/07 11:46:40;;;;;;;;;;;17.70;99.90;;;;;;5030681;28;20245;-74
2022/06/07 11:49:19;;;;;;;;;;;16.40;99.90;;;;;;5034689;28;20289;-75
2022/06/07 11:51:54;;;;;;;;;;;16.10;99.90;;;;;;5034512;28;19905;-74
2022/06/07 11:54:22;;;;;;;;;;;15.90;99.90;;;;;;5036723;28;19912;-74
2022/06/07 11:56:48;;;;;;;;;;;15.80;99.90;;;;;;5037974;28;19995;-74
2022/06/07 11:59:17;;;;;;;;;;;15.80;99.90;;;;;;5038460;28;20012;-74
2022/06/07 12:01:45;;;;;;;;;;;15.90;99.90;;;;;;5030327;28;19912;-75
2022/06/07 12:04:29;;;;;;;;;;;16.00;99.90;;;;;;5032080;28;19919;-76
2022/06/07 12:06:59;;;;;;;;;;;16.20;99.90;;;;;;5030074;28;19905;-74
2022/06/07 12:09:26;;;;;;;;;;;16.50;99.90;;;;;;5033638;28;19909;-76
2022/06/07 12:11:51;;;;;;;;;;;16.80;99.90;;;;;;5019127;28;19905;-74
2022/06/07 12:14:33;;;;;;;;;;;17.10;99.90;;;;;;5009671;28;20345;-74
2022/06/07 12:17:00;;;;;;;;;;;17.50;99.90;;;;;;5012561;28;20019;-74
2022/06/07 12:19:27;;;;;;;;;;;17.70;99.90;;;;;;5006788;28;19910;-74
2022/06/07 12:22:03;;;;;;;;;;;18.20;99.90;;;;;;5010103;28;19996;-74
2022/06/07 12:24:29;;;;;;;;;;;18.70;99.90;;;;;;5006798;28;20383;-75
2022/06/07 12:26:54;;;;;;;;;;;19.20;99.90;;;;;;5005868;28;19913;-74
2022/06/07 12:29:24;;;;;;;;;;;19.70;99.90;;;;;;5008730;28;19921;-74
2022/06/07 12:31:58;;;;;;;;;;;20.20;99.90;;;;;;5004282;28;19917;-74
2022/06/07 12:34:25;;;;;;;;;;;20.60;99.90;;;;;;5006928;28;20015;-74
2022/06/07 12:36:57;;;;;;;;;;;21.10;99.90;;;;;;5007663;28;19972;-75
2022/06/07 12:39:22;;;;;;;;;;;21.20;99.90;;;;;;5009586;28;19965;-74
2022/06/07 12:41:58;;;;;;;;;;;21.30;99.90;;;;;;5009908;28;20314;-74
2022/06/07 12:44:29;;;;;;;;;;;20.80;99.90;;;;;;5009828;28;19952;-74
2022/06/07 12:46:55;;;;;;;;;;;20.80;99.90;;;;;;5008345;28;19913;-75
2022/06/07 12:49:31;;;;;;;;;;;20.80;99.90;;;;;;5009752;28;19979;-76
2022/06/07 12:52:04;;;;;;;;;;;20.60;99.90;;;;;;5008606;28;19909;-75
2022/06/07 12:54:33;;;;;;;;;;;20.20;99.90;;;;;;5008864;28;19913;-74
2022/06/07 12:57:00;;;;;;;;;;;21.30;99.90;;;;;;5010046;28;19917;-74
2022/06/07 12:59:39;;;;;;;;;;;21.20;99.90;;;;;;5010327;28;20074;-74
2022/06/07 13:02:13;;;;;;;;;;;21.30;99.90;;;;;;5010191;28;19909;-76
2022/06/07 13:04:47;;;;;;;;;;;21.30;99.90;;;;;;5010118;28;20357;-75
2022/06/07 13:07:12;;;;;;;;;;;21.50;99.90;;;;;;5010057;28;19909;-75
2022/06/07 13:09:38;;;;;;;;;;;21.40;99.90;;;;;;5008508;28;19940;-75
2022/06/07 13:12:04;;;;;;;;;;;21.90;99.90;;;;;;5018003;28;19913;-75
2022/06/07 13:14:30;;;;;;;;;;;22.90;99.90;;;;;;5029595;28;19935;-76
2022/06/07 13:17:10;;;;;;;;;;;22.90;99.90;;;;;;5027954;28;19924;-74
2022/06/07 13:19:40;;;;;;;;;;;24.30;99.90;;;;;;5030231;28;19913;-75
2022/06/07 13:22:14;;;;;;;;;;;24.50;99.90;;;;;;5029681;28;19905;-75
2022/06/07 13:24:51;;;;;;;;;;;24.90;99.90;;;;;;5028017;28;19912;-75
2022/06/07 13:27:36;;;;;;;;;;;23.80;99.90;;;;;;5028218;28;20274;-76
2022/06/07 13:30:03;;;;;;;;;;;24.00;99.90;;;;;;5030167;28;19913;-75
2022/06/07 13:32:28;;;;;;;;;;;23.40;99.90;;;;;;5027875;28;19913;-76
2022/06/07 13:34:56;;;;;;;;;;;23.00;99.90;;;;;;5027855;28;19909;-76
2022/06/07 13:37:23;;;;;;;;;;;22.90;99.90;;;;;;5029093;28;19905;-76
2022/06/07 13:39:58;;;;;;;;;;;24.40;99.90;;;;;;5029111;28;20339;-75
2022/06/07 13:42:30;;;;;;;;;;;25.10;99.90;;;;;;5029144;28;19908;-76